Time;durP1;ratioP1;P1;durP2;ratioP2;P2;SDS_P1;SDS_P2;PMS_P1;PMS_P2;Temp;Humidity;BMP_temperature;BMP_pressure;BME280_temperature;BME280_humidity;BME280_pressure;Samples;Min_cycle;Max_cycle;Signal;HPM_P1;HPM_P2
2022/12/08 00:01:23;;;;;;;36.50;22.10;;;1.10;99.90;;;;;;6062907;23;20010;-90
2022/12/08 00:03:49;;;;;;;33.22;21.13;;;1.30;99.90;;;;;;6065729;23;20011;-89
2022/12/08 00:09:22;;;;;;;36.33;21.63;;;1.00;99.90;;;;;;6069424;23;20018;-89
2022/12/08 00:11:58;;;;;;;30.45;20.30;;;1.00;99.90;;;;;;6064306;23;20003;-89
2022/12/08 00:14:32;;;;;;;34.20;20.30;;;1.00;99.90;;;;;;6062184;23;20046;-89
2022/12/08 00:16:59;;;;;;;31.85;20.52;;;1.00;99.90;;;;;;6068526;23;20081;-89
2022/12/08 00:19:26;;;;;;;31.27;19.80;;;1.00;99.90;;;;;;6091165;23;20428;-88
2022/12/08 00:21:53;;;;;;;30.50;19.67;;;1.00;99.90;;;;;;6091540;23;20021;-89
2022/12/08 00:24:20;;;;;;;29.27;19.33;;;1.10;99.90;;;;;;6091883;23;20010;-91
2022/12/08 00:26:46;;;;;;;34.25;22.27;;;1.40;99.90;;;;;;6090374;23;20094;-89
2022/12/08 00:29:12;;;;;;;43.50;28.42;;;1.20;99.90;;;;;;6092680;23;19999;-91
2022/12/08 00:31:38;;;;;;;39.85;24.63;;;1.10;99.90;;;;;;6093585;23;19998;-91
2022/12/08 00:34:03;;;;;;;34.10;22.85;;;2.00;99.90;;;;;;6068778;23;20010;-89
2022/12/08 00:36:29;;;;;;;40.33;24.77;;;2.10;99.90;;;;;;6068029;23;20018;-89
2022/12/08 00:38:56;;;;;;;37.30;23.88;;;1.50;99.90;;;;;;6067894;23;20041;-89
2022/12/08 00:44:09;;;;;;;39.78;22.58;;;1.30;99.90;;;;;;6094028;23;20017;-89
2022/12/08 00:46:35;;;;;;;38.35;22.70;;;1.30;99.90;;;;;;6093750;23;20003;-88
2022/12/08 00:49:01;;;;;;;38.63;21.08;;;1.30;99.90;;;;;;6067178;23;20163;-89
2022/12/08 00:51:26;;;;;;;34.55;20.90;;;2.30;99.90;;;;;;6067775;23;20034;-89
2022/12/08 00:53:52;;;;;;;34.85;20.38;;;1.60;99.90;;;;;;6093098;23;20007;-89
2022/12/08 00:56:18;;;;;;;35.05;20.58;;;2.00;99.90;;;;;;6093742;23;20002;-89
2022/12/08 00:58:43;;;;;;;31.60;20.75;;;2.10;99.90;;;;;;6093292;23;20085;-90
2022/12/08 01:01:13;;;;;;;38.92;22.65;;;1.50;99.90;;;;;;6093552;23;20087;-88
2022/12/08 01:03:39;;;;;;;40.55;22.65;;;2.10;99.90;;;;;;6068596;23;20014;-89
2022/12/08 01:06:05;;;;;;;35.05;21.92;;;1.70;99.90;;;;;;6093383;23;20070;-90
2022/12/08 01:08:31;;;;;;;36.08;21.52;;;1.40;99.90;;;;;;6092595;23;20006;-89
2022/12/08 01:11:06;;;;;;;37.53;22.60;;;1.60;99.90;;;;;;6092911;23;20021;-89
2022/12/08 01:13:32;;;;;;;36.35;22.13;;;1.40;99.90;;;;;;6091057;23;20037;-89
2022/12/08 01:15:58;;;;;;;33.40;21.90;;;1.90;99.90;;;;;;6093128;23;20336;-88
2022/12/08 01:18:25;;;;;;;33.95;20.30;;;2.00;99.90;;;;;;6066891;23;20010;-89
2022/12/08 01:20:51;;;;;;;38.05;21.67;;;1.70;99.90;;;;;;6092932;23;20006;-89
2022/12/08 01:23:17;;;;;;;34.97;21.88;;;1.50;99.90;;;;;;6092685;23;20462;-89
2022/12/08 01:25:42;;;;;;;37.90;21.30;;;1.80;99.90;;;;;;6098924;23;20006;-90
2022/12/08 01:28:08;;;;;;;37.50;22.13;;;1.00;99.90;;;;;;6099567;23;20010;-90
2022/12/08 01:30:34;;;;;;;54.22;23.63;;;1.00;99.90;;;;;;6073137;23;20081;-92
2022/12/08 01:33:00;;;;;;;41.72;22.50;;;1.00;99.90;;;;;;6099464;23;20077;-89
2022/12/08 01:35:26;;;;;;;36.05;22.08;;;1.00;99.90;;;;;;6099073;23;20009;-91
2022/12/08 01:37:52;;;;;;;32.47;22.27;;;1.20;99.90;;;;;;6092854;23;20022;-89
2022/12/08 01:40:17;;;;;;;37.33;23.02;;;1.40;99.90;;;;;;6092769;23;20002;-89
2022/12/08 01:42:43;;;;;;;41.80;22.40;;;1.10;99.90;;;;;;6093286;23;20015;-87
2022/12/08 01:45:28;;;;;;;34.00;22.00;;;1.50;99.90;;;;;;6092517;23;20006;-89
2022/12/08 01:47:59;;;;;;;38.75;23.00;;;1.20;99.90;;;;;;6093136;23;20002;-88
2022/12/08 01:50:26;;;;;;;38.58;22.23;;;1.40;99.90;;;;;;6067162;23;20003;-87
2022/12/08 01:52:57;;;;;;;35.53;21.92;;;1.80;99.90;;;;;;6093333;23;20003;-87
2022/12/08 01:55:39;;;;;;;122.47;23.90;;;1.10;99.90;;;;;;6090415;23;20010;-89
2022/12/08 01:58:16;;;;;;;105.05;24.70;;;1.10;99.90;;;;;;6093146;23;20540;-88
2022/12/08 02:00:42;;;;;;;44.38;23.60;;;1.40;99.90;;;;;;6067793;23;20014;-87
2022/12/08 02:03:13;;;;;;;44.28;22.75;;;0.90;99.90;;;;;;6092458;23;20015;-89
2022/12/08 02:05:43;;;;;;;33.90;20.85;;;1.00;99.90;;;;;;6066455;23;20147;-89
2022/12/08 02:08:11;;;;;;;32.92;20.80;;;1.70;99.90;;;;;;6090327;23;20089;-89
2022/12/08 02:10:40;;;;;;;35.78;21.85;;;1.00;99.90;;;;;;6067062;23;20011;-87
2022/12/08 02:13:12;;;;;;;38.95;22.25;;;1.60;99.90;;;;;;6092307;23;20317;-87
2022/12/08 02:16:09;;;;;;;32.97;20.38;;;0.90;99.90;;;;;;6066925;23;20058;-87
2022/12/08 02:18:41;;;;;;;61.20;20.70;;;0.80;99.90;;;;;;6092184;23;20359;-89
2022/12/08 02:21:12;;;;;;;35.38;21.00;;;0.80;99.90;;;;;;6090118;23;20191;-89
2022/12/08 02:24:38;;;;;;;36.20;20.25;;;1.10;99.90;;;;;;6066680;23;20395;-87
2022/12/08 02:27:28;;;;;;;33.25;20.92;;;0.70;99.90;;;;;;6032376;23;20013;-87
2022/12/08 02:30:30;;;;;;;33.30;20.88;;;0.70;99.90;;;;;;6032213;23;20468;-89
2022/12/08 02:33:23;;;;;;;31.67;19.92;;;0.60;99.90;;;;;;6084924;23;20014;-88
2022/12/08 02:35:58;;;;;;;32.88;20.55;;;0.50;99.90;;;;;;6092360;23;20081;-88
2022/12/08 02:38:51;;;;;;;34.10;19.73;;;0.40;99.90;;;;;;6095454;23;20029;-88
2022/12/08 02:41:23;;;;;;;33.72;21.10;;;0.40;99.90;;;;;;6095612;23;20014;-89
2022/12/08 02:44:09;;;;;;;35.45;21.73;;;0.30;99.90;;;;;;6096094;23;20080;-87
2022/12/08 02:46:42;;;;;;;40.00;21.13;;;0.40;99.90;;;;;;6066480;23;20057;-88
2022/12/08 02:49:08;;;;;;;71.20;23.38;;;0.30;99.90;;;;;;6091656;23;20380;-88
2022/12/08 02:51:34;;;;;;;65.43;23.73;;;0.30;99.90;;;;;;6065564;23;20069;-88
2022/12/08 02:54:01;;;;;;;90.93;23.25;;;0.30;99.90;;;;;;6066471;23;20006;-88
2022/12/08 02:57:11;;;;;;;45.13;21.63;;;0.70;99.90;;;;;;6091470;23;20003;-87
2022/12/08 03:00:00;;;;;;;32.35;20.70;;;0.30;99.90;;;;;;6091552;23;20058;-88
2022/12/08 03:02:41;;;;;;;32.30;20.83;;;0.40;99.90;;;;;;6091792;23;20455;-88
2022/12/08 03:05:36;;;;;;;33.38;21.02;;;0.40;99.90;;;;;;6091314;23;19998;-88
2022/12/08 03:08:22;;;;;;;33.70;21.45;;;0.50;99.90;;;;;;6091651;23;20049;-87
2022/12/08 03:11:03;;;;;;;35.22;22.30;;;0.50;99.90;;;;;;6092349;23;19998;-88
2022/12/08 03:13:38;;;;;;;34.25;21.63;;;0.50;99.90;;;;;;6091349;23;20086;-89
2022/12/08 03:16:06;;;;;;;33.30;21.67;;;0.50;99.90;;;;;;6091796;23;20343;-89
2022/12/08 03:18:35;;;;;;;;;;;0.40;99.90;;;;;;6092080;23;20003;-90
2022/12/08 03:21:02;;;;;;;28.08;18.95;;;0.50;99.90;;;;;;6089946;23;19933;-89
2022/12/08 03:23:30;;;;;;;31.67;20.40;;;1.30;99.90;;;;;;6091719;23;20015;-88
2022/12/08 03:26:10;;;;;;;38.53;21.08;;;0.30;99.90;;;;;;6091642;23;20093;-89
2022/12/08 03:28:37;;;;;;;31.92;21.70;;;0.20;99.90;;;;;;6091326;23;20042;-88
2022/12/08 03:31:06;;;;;;;34.33;21.30;;;0.20;99.90;;;;;;6091153;23;19998;-89
2022/12/08 03:33:35;;;;;;;30.92;20.13;;;0.00;99.90;;;;;;6091801;23;20045;-88
2022/12/08 03:36:06;;;;;;;31.00;19.67;;;0.50;99.90;;;;;;6092108;23;20006;-89
2022/12/08 03:38:40;;;;;;;29.75;18.70;;;0.20;99.90;;;;;;6091797;23;20007;-87
2022/12/08 03:41:18;;;;;;;29.17;18.50;;;0.40;99.90;;;;;;6091417;23;20080;-87
2022/12/08 03:43:53;;;;;;;29.60;19.05;;;0.40;99.90;;;;;;6091923;23;20093;-89
2022/12/08 03:46:21;;;;;;;27.90;19.30;;;0.50;99.90;;;;;;6092585;23;20372;-88
2022/12/08 03:48:47;;;;;;;30.85;18.83;;;1.10;99.90;;;;;;6067192;23;20089;-88
2022/12/08 03:51:13;;;;;;;31.70;18.95;;;0.50;99.90;;;;;;6091439;23;20058;-87
2022/12/08 03:53:39;;;;;;;31.50;20.40;;;1.30;99.90;;;;;;6089404;23;20082;-88
2022/12/08 03:56:14;;;;;;;33.63;20.52;;;1.00;99.90;;;;;;6091697;23;20033;-87
2022/12/08 03:58:41;;;;;;;31.38;20.55;;;0.00;99.90;;;;;;6089838;23;20495;-88
2022/12/08 04:01:07;;;;;;;31.63;20.08;;;0.40;99.90;;;;;;6091273;23;20007;-89
2022/12/08 04:03:33;;;;;;;33.95;20.70;;;;;;;;;;6092437;23;20038;-88
2022/12/08 04:05:58;;;;;;;32.35;20.40;;;-0.20;99.90;;;;;;6100297;23;20310;-87
2022/12/08 04:08:24;;;;;;;33.50;20.63;;;-0.30;99.90;;;;;;6102949;23;20002;-89
2022/12/08 04:10:50;;;;;;;68.80;23.92;;;0.00;99.90;;;;;;6106344;23;20048;-87
2022/12/08 04:13:15;;;;;;;164.00;23.02;;;0.00;99.90;;;;;;6073059;23;20312;-87
2022/12/08 04:15:47;;;;;;;129.48;22.17;;;0.20;99.90;;;;;;6094095;23;19999;-87
2022/12/08 04:18:13;;;;;;;49.85;20.95;;;-0.20;99.90;;;;;;6068156;23;20314;-88
2022/12/08 04:20:40;;;;;;;34.10;20.25;;;0.00;99.90;;;;;;6093158;23;20048;-88
2022/12/08 04:23:06;;;;;;;87.45;20.83;;;-0.30;99.90;;;;;;6093290;23;20011;-87
2022/12/08 04:25:32;;;;;;;82.35;21.27;;;0.50;99.90;;;;;;6092394;23;20018;-88
2022/12/08 04:27:58;;;;;;;32.15;18.98;;;0.10;99.90;;;;;;6093383;23;20003;-88
2022/12/08 04:30:24;;;;;;;101.45;21.05;;;-0.20;99.90;;;;;;6067743;23;20392;-89
2022/12/08 04:32:49;;;;;;;111.70;20.70;;;0.20;99.90;;;;;;6068848;23;20073;-88
2022/12/08 04:35:16;;;;;;;25.33;17.70;;;0.00;99.90;;;;;;6092203;23;20009;-89
2022/12/08 04:37:43;;;;;;;32.30;20.05;;;-0.10;99.90;;;;;;6093095;23;20034;-89
2022/12/08 04:40:10;;;;;;;41.65;19.10;;;0.00;99.90;;;;;;6067781;23;20094;-89
2022/12/08 04:42:35;;;;;;;38.63;19.73;;;0.00;99.90;;;;;;6093861;23;20339;-88
2022/12/08 04:45:01;;;;;;;36.08;18.50;;;0.20;99.90;;;;;;6067142;23;20089;-89
2022/12/08 04:47:27;;;;;;;25.52;17.20;;;-0.20;99.90;;;;;;6093802;23;20335;-88
2022/12/08 04:49:52;;;;;;;27.02;17.00;;;-0.50;99.90;;;;;;6094786;23;20395;-88
2022/12/08 04:52:18;;;;;;;31.95;18.27;;;0.10;99.90;;;;;;6067655;23;20003;-88
2022/12/08 04:54:44;;;;;;;27.45;17.85;;;0.20;99.90;;;;;;6067912;23;20627;-88
2022/12/08 04:57:09;;;;;;;29.77;18.75;;;0.50;99.90;;;;;;6093685;23;20117;-87
2022/12/08 04:59:35;;;;;;;29.50;18.52;;;0.10;99.90;;;;;;6093150;23;20013;-88
2022/12/08 05:02:01;;;;;;;28.13;18.00;;;0.10;99.90;;;;;;6068245;23;20408;-89
2022/12/08 05:04:27;;;;;;;29.02;18.70;;;0.40;99.90;;;;;;6092458;23;20033;-88
2022/12/08 05:06:53;;;;;;;27.70;18.15;;;0.80;99.90;;;;;;6094787;23;20078;-89
2022/12/08 05:09:18;;;;;;;27.77;18.15;;;0.50;99.90;;;;;;6068688;23;20325;-89
2022/12/08 05:11:44;;;;;;;29.58;19.50;;;0.90;99.90;;;;;;6069847;23;20441;-88
2022/12/08 05:14:11;;;;;;;36.97;22.15;;;1.10;99.90;;;;;;6110820;23;20007;-89
2022/12/08 05:16:38;;;;;;;37.72;21.67;;;0.40;99.90;;;;;;6083302;23;20010;-88
2022/12/08 05:19:04;;;;;;;36.50;22.60;;;0.40;99.90;;;;;;6087119;23;20017;-88
2022/12/08 05:21:29;;;;;;;40.65;23.65;;;1.30;99.90;;;;;;6097529;23;20333;-88
2022/12/08 05:23:55;;;;;;;41.75;24.52;;;0.50;99.90;;;;;;6070393;23;20038;-88
2022/12/08 05:26:21;;;;;;;39.30;22.73;;;0.50;99.90;;;;;;6066983;23;20030;-89
2022/12/08 05:28:46;;;;;;;45.05;25.90;;;0.50;99.90;;;;;;6093013;23;20335;-89
2022/12/08 05:31:19;;;;;;;45.83;26.98;;;0.70;99.90;;;;;;6092737;23;20034;-91
2022/12/08 05:33:45;;;;;;;50.35;25.52;;;0.50;99.90;;;;;;6066695;23;20010;-90
2022/12/08 05:36:13;;;;;;;47.72;26.35;;;0.30;99.90;;;;;;6093678;23;20073;-90
2022/12/08 05:38:39;;;;;;;76.45;28.25;;;0.40;99.90;;;;;;6093848;23;20436;-90
2022/12/08 05:41:06;;;;;;;47.25;25.77;;;1.30;99.90;;;;;;6092941;23;20078;-88
2022/12/08 05:43:33;;;;;;;51.95;26.88;;;0.40;99.90;;;;;;6093158;23;20015;-87
2022/12/08 05:45:58;;;;;;;76.32;35.08;;;1.30;99.90;;;;;;6066945;23;20002;-89
2022/12/08 05:48:52;;;;;;;;;;;;;;;;;;;;;
2022/12/08 05:51:24;;;;;;;52.90;27.60;;;0.30;99.90;;;;;;6092840;23;20089;-89
2022/12/08 05:53:55;;;;;;;140.88;51.65;;;0.60;99.90;;;;;;6067821;23;20014;-89
2022/12/08 05:56:24;;;;;;;65.72;27.13;;;0.60;99.90;;;;;;6093191;23;20010;-91
2022/12/08 05:58:50;;;;;;;56.38;28.13;;;0.10;99.90;;;;;;6092302;23;20006;-91
2022/12/08 06:01:27;;;;;;;50.50;26.45;;;0.50;99.90;;;;;;6092563;23;20459;-87
2022/12/08 06:03:54;;;;;;;61.92;27.88;;;0.40;99.90;;;;;;6093459;23;20016;-88
2022/12/08 06:06:20;;;;;;;46.40;26.30;;;0.70;99.90;;;;;;6066715;23;20006;-88
2022/12/08 06:08:46;;;;;;;43.80;25.05;;;0.40;99.90;;;;;;6066865;23;20061;-88
2022/12/08 06:11:23;;;;;;;51.03;25.48;;;0.40;99.90;;;;;;6092709;23;20009;-91
2022/12/08 06:13:49;;;;;;;52.33;26.85;;;0.70;99.90;;;;;;6067175;23;20266;-89
2022/12/08 06:16:15;;;;;;;64.65;28.70;;;0.40;99.90;;;;;;6067817;23;20010;-89
2022/12/08 06:18:41;;;;;;;69.68;35.42;;;1.20;99.90;;;;;;6067029;23;20161;-88
2022/12/08 06:21:23;;;;;;;;;;;;;;;;;;;;;
2022/12/08 06:23:51;;;;;;;63.63;30.10;;;0.40;99.90;;;;;;6092953;23;20706;-91
2022/12/08 06:26:17;;;;;;;62.85;29.75;;;0.80;99.90;;;;;;6091648;23;20029;-90
2022/12/08 06:28:44;;;;;;;73.47;36.45;;;0.40;99.90;;;;;;6067091;23;20017;-89
2022/12/08 06:31:18;;;;;;;64.30;31.50;;;0.20;99.90;;;;;;6093115;23;19995;-91
2022/12/08 06:33:47;;;;;;;82.10;29.60;;;1.20;99.90;;;;;;6067949;23;20003;-89
2022/12/08 06:36:14;;;;;;;60.50;29.08;;;0.40;99.90;;;;;;6067489;23;20469;-89
2022/12/08 06:38:41;;;;;;;56.40;27.23;;;0.50;99.90;;;;;;6093964;23;20054;-92
2022/12/08 06:41:07;;;;;;;74.60;27.92;;;0.40;99.90;;;;;;6067741;23;20006;-89
2022/12/08 06:43:34;;;;;;;51.28;28.55;;;0.70;99.90;;;;;;6094218;23;20042;-91
2022/12/08 06:46:00;;;;;;;89.32;40.45;;;0.50;99.90;;;;;;6072059;23;20006;-89
2022/12/08 06:48:26;;;;;;;95.55;35.88;;;0.90;99.90;;;;;;6087807;23;20030;-91
2022/12/08 06:50:51;;;;;;;76.22;28.75;;;0.60;99.90;;;;;;6113449;23;19998;-89
2022/12/08 06:53:17;;;;;;;60.65;33.67;;;0.70;99.90;;;;;;6090227;23;20009;-90
2022/12/08 06:55:47;;;;;;;52.45;28.70;;;0.50;99.90;;;;;;6083765;23;20026;-90
2022/12/08 06:58:13;;;;;;;112.78;35.65;;;1.50;99.90;;;;;;6093286;23;20380;-89
2022/12/08 07:00:40;;;;;;;62.25;29.80;;;0.40;99.90;;;;;;6094335;23;20003;-93
2022/12/08 07:03:10;;;;;;;58.15;29.27;;;1.30;99.90;;;;;;6092583;23;20022;-90
2022/12/08 07:05:57;;;;;;;74.45;31.27;;;0.70;99.90;;;;;;6067361;23;20003;-91
2022/12/08 07:08:23;;;;;;;65.00;31.08;;;0.70;99.90;;;;;;6081173;23;20137;-91
2022/12/08 07:10:48;;;;;;;67.40;31.35;;;1.30;99.90;;;;;;6067869;23;20030;-90
2022/12/08 07:13:14;;;;;;;65.45;31.05;;;0.70;99.90;;;;;;6065583;23;20452;-91
2022/12/08 07:15:40;;;;;;;62.78;32.08;;;0.60;99.90;;;;;;6067649;23;20014;-91
2022/12/08 07:18:05;;;;;;;54.22;28.85;;;0.80;99.90;;;;;;6066205;23;20011;-88
2022/12/08 07:20:31;;;;;;;65.53;30.85;;;1.00;99.90;;;;;;6066530;23;20010;-90
2022/12/08 07:22:57;;;;;;;80.40;34.00;;;0.30;99.90;;;;;;6093145;23;20010;-90
2022/12/08 07:25:22;;;;;;;113.00;55.95;;;0.60;99.90;;;;;;6066259;23;20010;-90
2022/12/08 07:27:50;;;;;;;71.25;33.92;;;1.40;99.90;;;;;;6066252;23;20006;-88
2022/12/08 07:30:16;;;;;;;62.22;30.33;;;0.40;99.90;;;;;;6065940;23;20010;-90
2022/12/08 07:32:42;;;;;;;72.75;33.50;;;1.10;99.90;;;;;;6092263;23;20375;-90
2022/12/08 07:35:08;;;;;;;64.85;31.30;;;1.20;99.90;;;;;;6089669;23;20053;-90
2022/12/08 07:37:34;;;;;;;203.82;30.52;;;0.50;99.90;;;;;;6067027;23;20093;-89
2022/12/08 07:40:00;;;;;;;57.78;28.17;;;0.50;99.90;;;;;;6090874;23;20026;-89
2022/12/08 07:42:26;;;;;;;58.72;28.27;;;0.70;99.90;;;;;;6094563;23;20011;-91
2022/12/08 07:44:52;;;;;;;119.07;39.92;;;1.30;99.90;;;;;;6095181;23;20010;-91
2022/12/08 07:47:18;;;;;;;107.05;31.02;;;0.60;99.90;;;;;;6096135;23;20006;-90
2022/12/08 07:49:43;;;;;;;97.25;48.00;;;0.60;99.90;;;;;;6109564;23;19983;-89
2022/12/08 07:52:09;;;;;;;54.35;27.42;;;0.60;99.90;;;;;;6120176;23;19991;-89
2022/12/08 07:54:34;;;;;;;54.40;27.83;;;1.30;99.90;;;;;;6119853;23;20018;-88
2022/12/08 07:57:02;;;;;;;53.88;27.15;;;1.40;99.90;;;;;;6108318;23;20081;-90
2022/12/08 07:59:28;;;;;;;72.28;29.75;;;0.90;99.90;;;;;;6097749;23;20006;-90
2022/12/08 08:01:55;;;;;;;59.58;28.27;;;0.50;99.90;;;;;;6068903;23;20351;-90
2022/12/08 08:04:21;;;;;;;54.67;27.90;;;0.60;99.90;;;;;;6095367;23;20006;-91
2022/12/08 08:06:47;;;;;;;101.70;30.33;;;0.30;99.90;;;;;;6093954;23;20018;-91
2022/12/08 08:09:13;;;;;;;63.00;29.23;;;0.40;99.90;;;;;;6067372;23;20014;-91
2022/12/08 08:11:38;;;;;;;192.55;34.67;;;0.60;99.90;;;;;;6093759;23;20317;-91
2022/12/08 08:14:04;;;;;;;160.57;31.60;;;1.30;99.90;;;;;;6067986;23;20119;-91
2022/12/08 08:16:29;;;;;;;87.35;40.13;;;0.70;99.90;;;;;;6094131;23;20007;-90
2022/12/08 08:18:55;;;;;;;82.85;31.92;;;1.00;99.90;;;;;;6093462;23;20010;-90
2022/12/08 08:21:21;;;;;;;118.70;38.55;;;0.80;99.90;;;;;;6093498;23;20002;-91
2022/12/08 08:23:47;;;;;;;53.50;28.33;;;0.50;99.90;;;;;;6092764;23;20014;-91
2022/12/08 08:26:13;;;;;;;92.95;30.02;;;0.70;99.90;;;;;;6092516;23;20016;-91
2022/12/08 08:28:38;;;;;;;100.25;34.88;;;0.70;99.90;;;;;;6093296;23;20009;-90
2022/12/08 08:31:04;;;;;;;81.20;29.27;;;0.70;99.90;;;;;;6093253;23;20006;-92
2022/12/08 08:33:30;;;;;;;56.45;29.38;;;0.70;99.90;;;;;;6094658;23;20442;-91
2022/12/08 08:35:56;;;;;;;98.72;30.17;;;0.90;99.90;;;;;;6067975;23;20014;-90
2022/12/08 08:38:22;;;;;;;82.35;32.22;;;0.70;99.90;;;;;;6094169;23;20003;-93
2022/12/08 08:40:47;;;;;;;92.13;30.75;;;1.40;99.90;;;;;;6068714;23;20317;-90
2022/12/08 08:43:27;;;;;;;57.55;30.48;;;0.90;99.90;;;;;;6067125;23;20072;-92
2022/12/08 08:45:58;;;;;;;63.03;34.60;;;0.80;99.90;;;;;;6093012;23;19998;-91
2022/12/08 08:48:25;;;;;;;110.72;45.05;;;0.90;99.90;;;;;;6067243;23;20011;-92
2022/12/08 08:50:51;;;;;;;75.35;27.67;;;0.90;99.90;;;;;;6093216;23;20003;-92
2022/12/08 08:53:17;;;;;;;53.33;23.17;;;0.90;99.90;;;;;;6092109;23;20448;-92
2022/12/08 08:55:42;;;;;;;49.72;28.38;;;1.00;99.90;;;;;;6067010;23;20013;-90
2022/12/08 08:58:08;;;;;;;49.35;25.25;;;1.20;99.90;;;;;;6093629;23;20007;-94
2022/12/08 09:00:34;;;;;;;64.10;24.98;;;1.00;99.90;;;;;;6068769;23;20030;-94
2022/12/08 09:02:59;;;;;;;51.20;26.02;;;1.00;99.90;;;;;;6070222;23;20061;-95
2022/12/08 09:05:25;;;;;;;55.72;25.00;;;1.00;99.90;;;;;;6069798;23;20010;-92
2022/12/08 09:07:51;;;;;;;46.53;24.08;;;1.60;99.90;;;;;;6093085;23;20002;-92
2022/12/08 09:10:17;;;;;;;45.42;21.55;;;1.00;99.90;;;;;;6095212;23;20002;-90
2022/12/08 09:12:45;;;;;;;125.25;49.10;;;1.00;99.90;;;;;;6067561;23;20483;-91
2022/12/08 09:15:11;;;;;;;61.22;32.72;;;1.00;99.90;;;;;;6067919;23;20007;-90
2022/12/08 09:17:37;;;;;;;48.47;25.25;;;1.60;99.90;;;;;;6094306;23;20093;-93
2022/12/08 09:20:13;;;;;;;52.30;20.92;;;1.20;99.90;;;;;;6094281;23;20049;-92
2022/12/08 09:22:39;;;;;;;39.72;20.92;;;1.30;99.90;;;;;;6068591;23;20069;-93
2022/12/08 09:25:05;;;;;;;40.80;21.48;;;1.80;99.90;;;;;;6095273;23;20003;-92
2022/12/08 09:27:31;;;;;;;47.08;19.52;;;1.40;99.90;;;;;;6093642;23;20021;-88
2022/12/08 09:29:56;;;;;;;46.58;19.98;;;1.40;99.90;;;;;;6119263;23;19990;-89
2022/12/08 09:32:22;;;;;;;62.30;19.38;;;1.80;99.90;;;;;;6094340;23;20014;-89
2022/12/08 09:34:48;;;;;;;67.95;21.40;;;1.60;99.90;;;;;;6105881;23;20447;-90
2022/12/08 09:37:29;;;;;;;106.95;24.92;;;1.50;99.90;;;;;;6071302;23;20021;-92
2022/12/08 09:39:54;;;;;;;76.72;25.10;;;1.50;99.90;;;;;;6070367;23;20345;-90
2022/12/08 09:42:42;;;;;;;35.45;19.85;;;1.50;99.90;;;;;;6095256;23;20050;-93
2022/12/08 09:45:13;;;;;;;67.70;23.77;;;1.50;99.90;;;;;;6067569;23;19998;-94
2022/12/08 09:48:13;;;;;;;101.28;20.90;;;1.50;99.90;;;;;;6092769;23;20003;-91
2022/12/08 09:50:53;;;;;;;34.38;19.02;;;1.50;99.90;;;;;;6060207;23;20404;-91
2022/12/08 09:53:26;;;;;;;85.85;20.50;;;1.40;99.90;;;;;;6092887;23;20033;-91
2022/12/08 09:56:03;;;;;;;59.22;18.55;;;1.40;99.90;;;;;;6092406;23;20005;-89
2022/12/08 09:58:28;;;;;;;102.82;25.33;;;1.30;99.90;;;;;;6091913;23;20038;-92
2022/12/08 10:00:54;;;;;;;169.60;22.58;;;1.30;99.90;;;;;;6091900;23;20081;-92
2022/12/08 10:03:23;;;;;;;207.50;20.25;;;1.30;99.90;;;;;;6091564;23;20021;-90
2022/12/08 10:06:20;;;;;;;36.22;19.88;;;1.20;99.90;;;;;;6091859;23;20007;-91
2022/12/08 10:08:51;;;;;;;64.10;17.65;;;1.20;99.90;;;;;;6041553;23;20013;-93
2022/12/08 10:11:25;;;;;;;61.80;23.00;;;1.30;99.90;;;;;;6090833;23;20447;-92
2022/12/08 10:14:06;;;;;;;75.90;22.48;;;1.40;99.90;;;;;;6066237;23;20085;-90
2022/12/08 10:16:40;;;;;;;40.25;23.55;;;1.50;99.90;;;;;;6092407;23;20011;-92
2022/12/08 10:19:16;;;;;;;64.68;19.45;;;1.50;99.90;;;;;;6091480;23;20006;-91
2022/12/08 10:21:42;;;;;;;57.75;19.08;;;1.40;99.90;;;;;;6091876;23;20006;-89
2022/12/08 10:24:22;;;;;;;96.45;23.88;;;1.50;99.90;;;;;;6066618;23;20015;-90
2022/12/08 10:26:48;;;;;;;40.03;19.73;;;1.60;99.90;;;;;;6089971;23;20002;-90
2022/12/08 10:29:14;;;;;;;68.05;24.35;;;1.60;99.90;;;;;;6088417;23;20014;-92
2022/12/08 10:31:41;;;;;;;33.90;19.30;;;1.70;99.90;;;;;;6091915;23;20007;-90
2022/12/08 10:34:22;;;;;;;62.42;17.42;;;1.80;99.90;;;;;;6065971;23;20006;-91
2022/12/08 10:36:59;;;;;;;37.58;19.25;;;1.80;99.90;;;;;;6065763;23;20002;-92
2022/12/08 10:39:44;;;;;;;92.60;19.67;;;1.80;99.90;;;;;;6066116;23;20085;-91
2022/12/08 10:42:13;;;;;;;89.75;31.00;;;1.90;99.90;;;;;;6090963;23;20137;-90
2022/12/08 10:44:54;;;;;;;46.63;20.73;;;1.90;99.90;;;;;;6090474;23;20531;-91
2022/12/08 10:47:22;;;;;;;32.65;18.00;;;1.90;99.90;;;;;;6090185;23;20061;-89
2022/12/08 10:50:15;;;;;;;54.50;30.55;;;1.90;99.90;;;;;;6068038;23;20443;-92
2022/12/08 10:52:41;;;;;;;45.20;28.38;;;1.90;99.90;;;;;;6091896;23;19998;-88
2022/12/08 10:55:20;;;;;;;48.90;17.73;;;1.90;99.90;;;;;;6092157;23;20010;-93
2022/12/08 10:57:47;;;;;;;;;;;2.00;99.90;;;;;;6067815;23;20002;-93
2022/12/08 11:00:23;;;;;;;30.05;16.55;;;2.50;99.90;;;;;;6091876;23;19905;-90
2022/12/08 11:03:03;;;;;;;29.40;16.45;;;1.90;99.90;;;;;;6092426;23;20010;-89
2022/12/08 11:05:34;;;;;;;46.05;20.83;;;1.90;99.90;;;;;;6092265;23;20002;-93
2022/12/08 11:08:01;;;;;;;57.72;22.30;;;2.00;99.90;;;;;;6092149;23;20002;-92
2022/12/08 11:10:45;;;;;;;24.45;14.38;;;2.20;99.90;;;;;;6067583;23;20293;-92
2022/12/08 11:16:55;;;;;;;;;;;;;;;;;;;;;
2022/12/08 11:26:05;;;;;;;47.55;18.55;;;3.00;99.90;;;;;;5994379;23;20063;-92
2022/12/08 11:28:33;;;;;;;49.35;21.77;;;2.70;99.90;;;;;;6066325;23;20093;-93
2022/12/08 11:31:15;;;;;;;31.58;16.65;;;2.30;99.90;;;;;;6066912;23;20006;-92
2022/12/08 11:34:55;;;;;;;;;;;;;;;;;;;;;
2022/12/08 11:47:35;;;;;;;49.67;22.50;;;3.00;99.90;;;;;;5735072;25;20564;-91
2022/12/08 11:50:21;;;;;;;50.88;24.77;;;2.60;99.90;;;;;;5830865;24;20018;-92
2022/12/08 11:52:50;;;;;;;169.25;25.90;;;2.70;99.90;;;;;;6064935;23;20017;-91
2022/12/08 11:55:33;;;;;;;89.47;26.05;;;2.60;99.90;;;;;;6069338;23;20467;-90
2022/12/08 11:58:11;;;;;;;103.88;22.75;;;2.70;99.90;;;;;;6092383;23;20006;-91
2022/12/08 12:00:36;;;;;;;73.90;21.25;;;2.70;99.90;;;;;;6092784;23;20026;-93
2022/12/08 12:03:24;;;;;;;51.13;18.67;;;3.00;99.90;;;;;;6092155;23;20503;-94
2022/12/08 12:05:58;;;;;;;91.90;18.42;;;2.40;99.90;;;;;;6109824;23;20003;-90
2022/12/08 12:08:33;;;;;;;77.55;13.43;;;2.40;99.90;;;;;;6116035;23;20006;-90
2022/12/08 12:12:11;;;;;;;143.23;13.65;;;2.20;99.90;;;;;;6117278;23;20305;-90
2022/12/08 12:14:53;;;;;;;86.30;12.25;;;2.20;99.90;;;;;;6100913;23;20014;-92
2022/12/08 12:17:48;;;;;;;70.35;13.35;;;2.10;99.90;;;;;;6096809;23;20072;-93
2022/12/08 12:20:28;;;;;;;23.13;11.88;;;2.10;99.90;;;;;;6093987;23;20074;-92
2022/12/08 12:23:04;;;;;;;72.22;19.58;;;2.20;99.90;;;;;;6091844;23;20021;-93
2022/12/08 12:25:33;;;;;;;116.47;23.70;;;2.40;99.90;;;;;;6066036;23;20016;-91
2022/12/08 12:28:04;;;;;;;68.18;12.13;;;2.70;99.90;;;;;;6090226;23;20006;-92
2022/12/08 12:30:48;;;;;;;38.00;11.27;;;2.00;99.90;;;;;;6068866;23;20383;-94
2022/12/08 12:33:16;;;;;;;38.50;11.32;;;2.30;99.90;;;;;;6091324;23;20317;-91
2022/12/08 12:35:46;;;;;;;27.83;10.02;;;1.80;99.90;;;;;;6094782;23;20006;-93
2022/12/08 12:39:16;;;;;;;61.13;11.45;;;2.00;99.90;;;;;;6067911;23;20007;-91
2022/12/08 12:41:26;;;;;;;27.58;10.02;;;2.00;99.90;;;;;;6078545;23;20003;-93
2022/12/08 12:44:27;;;;;;;21.25;10.15;;;2.60;99.90;;;;;;6067536;23;20108;-93
2022/12/08 12:46:56;;;;;;;32.10;10.75;;;2.10;99.90;;;;;;6058361;23;20003;-92
2022/12/08 12:49:40;;;;;;;20.85;10.68;;;2.10;99.90;;;;;;6067842;23;20006;-94
2022/12/08 12:52:14;;;;;;;17.45;10.48;;;2.10;99.90;;;;;;6094027;23;20009;-91
2022/12/08 12:54:49;;;;;;;19.92;10.25;;;2.60;99.90;;;;;;6089774;23;20428;-91
2022/12/08 12:57:21;;;;;;;18.90;10.73;;;2.10;99.90;;;;;;6089693;23;20010;-90
2022/12/08 12:59:53;;;;;;;18.63;11.60;;;2.20;99.90;;;;;;6064337;23;20013;-91
2022/12/08 13:02:21;;;;;;;20.27;12.80;;;2.20;99.90;;;;;;6088301;23;20013;-93
2022/12/08 13:04:55;;;;;;;29.63;16.85;;;2.30;99.90;;;;;;6092206;23;20003;-93
2022/12/08 13:07:31;;;;;;;20.38;12.82;;;2.50;99.90;;;;;;6092684;23;20002;-91
2022/12/08 13:10:02;;;;;;;19.08;10.65;;;2.60;99.90;;;;;;6092031;23;20042;-94
2022/12/08 13:12:28;;;;;;;50.53;27.98;;;2.70;99.90;;;;;;6071296;23;20021;-94
2022/12/08 13:15:26;;;;;;;33.83;17.42;;;2.70;99.90;;;;;;6069401;23;20007;-94
2022/12/08 13:18:00;;;;;;;20.50;12.07;;;2.70;99.90;;;;;;6071516;23;20387;-91
2022/12/08 13:20:26;;;;;;;18.95;11.68;;;3.10;99.90;;;;;;6094517;23;20371;-91
2022/12/08 13:22:52;;;;;;;21.35;12.32;;;2.50;99.90;;;;;;6093031;23;20010;-94
2022/12/08 13:25:39;;;;;;;22.73;14.10;;;2.50;99.90;;;;;;6092937;23;20130;-94
2022/12/08 13:28:26;;;;;;;19.02;12.00;;;2.40;99.90;;;;;;6093037;23;20046;-92